sensor_id;sensor_type;location;lat;lon;timestamp;temperature;humidity
40085;DHT22;25786;51.504;7.344;2022-12-18T00:01:30;-3270.70;79.20
40085;DHT22;25786;51.504;7.344;2022-12-18T00:03:56;-3270.70;78.80
40085;DHT22;25786;51.504;7.344;2022-12-18T00:06:25;-3270.60;78.80
40085;DHT22;25786;51.504;7.344;2022-12-18T00:08:51;-3270.50;79.10
40085;DHT22;25786;51.504;7.344;2022-12-18T00:11:17;-3270.50;79.40
40085;DHT22;25786;51.504;7.344;2022-12-18T00:13:43;-3270.50;79.10
40085;DHT22;25786;51.504;7.344;2022-12-18T00:16:11;-3270.60;78.90
40085;DHT22;25786;51.504;7.344;2022-12-18T00:18:36;-3270.60;78.70
40085;DHT22;25786;51.504;7.344;2022-12-18T00:21:03;-3270.60;78.10
40085;DHT22;25786;51.504;7.344;2022-12-18T00:23:29;-3270.50;78.20
40085;DHT22;25786;51.504;7.344;2022-12-18T00:25:59;-3270.50;78.40
40085;DHT22;25786;51.504;7.344;2022-12-18T00:28:24;-3270.50;78.70
40085;DHT22;25786;51.504;7.344;2022-12-18T00:30:50;-3270.50;78.80
40085;DHT22;25786;51.504;7.344;2022-12-18T00:33:17;-3270.60;78.90
40085;DHT22;25786;51.504;7.344;2022-12-18T00:35:42;-3270.60;79.20
40085;DHT22;25786;51.504;7.344;2022-12-18T00:38:08;-3270.60;79.00
40085;DHT22;25786;51.504;7.344;2022-12-18T00:40:33;-3270.50;78.60
40085;DHT22;25786;51.504;7.344;2022-12-18T00:42:58;-3270.50;78.20
40085;DHT22;25786;51.504;7.344;2022-12-18T00:45:24;-3270.40;78.10
40085;DHT22;25786;51.504;7.344;2022-12-18T00:47:50;-3270.30;78.50
40085;DHT22;25786;51.504;7.344;2022-12-18T00:50:16;-3270.20;78.00
40085;DHT22;25786;51.504;7.344;2022-12-18T00:52:41;-3270.10;77.70
40085;DHT22;25786;51.504;7.344;2022-12-18T00:55:07;-3270.10;77.90
40085;DHT22;25786;51.504;7.344;2022-12-18T00:57:33;-3270.00;78.10
40085;DHT22;25786;51.504;7.344;2022-12-18T00:59:58;-3269.80;77.90
40085;DHT22;25786;51.504;7.344;2022-12-18T01:02:24;-3269.80;78.30
40085;DHT22;25786;51.504;7.344;2022-12-18T01:04:50;-3269.60;78.40
40085;DHT22;25786;51.504;7.344;2022-12-18T01:07:15;-3269.70;78.40
40085;DHT22;25786;51.504;7.344;2022-12-18T01:09:41;-3269.70;78.70
40085;DHT22;25786;51.504;7.344;2022-12-18T01:12:06;-3269.80;78.90
40085;DHT22;25786;51.504;7.344;2022-12-18T01:14:32;-3270.00;78.70
40085;DHT22;25786;51.504;7.344;2022-12-18T01:16:57;-3270.00;78.30
40085;DHT22;25786;51.504;7.344;2022-12-18T01:19:23;-3269.90;78.60
40085;DHT22;25786;51.504;7.344;2022-12-18T01:21:49;-3270.10;78.60
40085;DHT22;25786;51.504;7.344;2022-12-18T01:24:14;-3270.10;78.90
40085;DHT22;25786;51.504;7.344;2022-12-18T01:26:40;-3270.20;79.40
40085;DHT22;25786;51.504;7.344;2022-12-18T01:29:05;-3270.20;79.20
40085;DHT22;25786;51.504;7.344;2022-12-18T01:31:32;-3270.30;79.10
40085;DHT22;25786;51.504;7.344;2022-12-18T01:34:00;-3270.30;78.30
40085;DHT22;25786;51.504;7.344;2022-12-18T01:36:27;-3270.20;78.30
40085;DHT22;25786;51.504;7.344;2022-12-18T01:38:53;-3270.10;78.20
40085;DHT22;25786;51.504;7.344;2022-12-18T01:41:21;-3270.20;78.00
40085;DHT22;25786;51.504;7.344;2022-12-18T01:43:56;-3270.00;78.00
40085;DHT22;25786;51.504;7.344;2022-12-18T01:46:22;-3270.10;77.90
40085;DHT22;25786;51.504;7.344;2022-12-18T01:48:49;-3270.00;78.10
40085;DHT22;25786;51.504;7.344;2022-12-18T01:51:15;-3270.00;78.30
40085;DHT22;25786;51.504;7.344;2022-12-18T01:53:41;-3270.10;78.30
40085;DHT22;25786;51.504;7.344;2022-12-18T01:56:07;-3270.00;78.10
40085;DHT22;25786;51.504;7.344;2022-12-18T01:58:37;-3270.00;78.10
40085;DHT22;25786;51.504;7.344;2022-12-18T02:01:04;-3269.90;77.70
40085;DHT22;25786;51.504;7.344;2022-12-18T02:03:30;-3269.90;78.10
40085;DHT22;25786;51.504;7.344;2022-12-18T02:08:30;-3269.80;78.40
40085;DHT22;25786;51.504;7.344;2022-12-18T02:13:38;-3270.00;78.20
40085;DHT22;25786;51.504;7.344;2022-12-18T02:16:09;-3270.00;77.80
40085;DHT22;25786;51.504;7.344;2022-12-18T02:18:40;-3269.90;77.60
40085;DHT22;25786;51.504;7.344;2022-12-18T02:29:01;-3269.70;77.60
40085;DHT22;25786;51.504;7.344;2022-12-18T02:31:30;-3269.70;77.80
40085;DHT22;25786;51.504;7.344;2022-12-18T02:33:58;-3269.70;77.90
40085;DHT22;25786;51.504;7.344;2022-12-18T02:36:24;-3269.80;77.60
40085;DHT22;25786;51.504;7.344;2022-12-18T02:38:50;-3269.60;77.30
40085;DHT22;25786;51.504;7.344;2022-12-18T02:41:17;-3269.70;78.20
40085;DHT22;25786;51.504;7.344;2022-12-18T02:43:52;-3269.80;78.10
40085;DHT22;25786;51.504;7.344;2022-12-18T02:46:24;-3269.80;77.60
40085;DHT22;25786;51.504;7.344;2022-12-18T02:48:50;-3270.00;77.50
40085;DHT22;25786;51.504;7.344;2022-12-18T02:51:20;-3270.00;77.40
40085;DHT22;25786;51.504;7.344;2022-12-18T02:53:50;-3270.00;77.60
40085;DHT22;25786;51.504;7.344;2022-12-18T02:56:21;-3270.10;78.00
40085;DHT22;25786;51.504;7.344;2022-12-18T03:01:20;-3270.00;78.00
40085;DHT22;25786;51.504;7.344;2022-12-18T03:03:51;-3270.00;78.20
40085;DHT22;25786;51.504;7.344;2022-12-18T03:06:21;-3269.90;78.00
40085;DHT22;25786;51.504;7.344;2022-12-18T03:08:49;-3270.00;78.00
40085;DHT22;25786;51.504;7.344;2022-12-18T03:11:17;-3269.90;78.10
40085;DHT22;25786;51.504;7.344;2022-12-18T03:14:02;-3269.90;78.20
40085;DHT22;25786;51.504;7.344;2022-12-18T03:16:29;-3269.90;78.00
40085;DHT22;25786;51.504;7.344;2022-12-18T03:19:03;-3269.80;77.90
40085;DHT22;25786;51.504;7.344;2022-12-18T03:21:43;-3269.70;77.80
40085;DHT22;25786;51.504;7.344;2022-12-18T03:24:10;-3269.80;77.90
40085;DHT22;25786;51.504;7.344;2022-12-18T03:26:36;-3269.80;77.60
40085;DHT22;25786;51.504;7.344;2022-12-18T03:29:27;-3269.90;77.40
40085;DHT22;25786;51.504;7.344;2022-12-18T03:31:54;-3269.70;77.20
40085;DHT22;25786;51.504;7.344;2022-12-18T03:34:23;-3269.70;77.70
40085;DHT22;25786;51.504;7.344;2022-12-18T03:36:49;-3269.70;77.40
40085;DHT22;25786;51.504;7.344;2022-12-18T03:39:15;-3269.70;77.40
40085;DHT22;25786;51.504;7.344;2022-12-18T03:41:44;-3269.70;77.60
40085;DHT22;25786;51.504;7.344;2022-12-18T03:44:19;-3269.70;78.00
40085;DHT22;25786;51.504;7.344;2022-12-18T03:49:35;-3269.50;78.20
40085;DHT22;25786;51.504;7.344;2022-12-18T03:52:03;-3269.60;78.70
40085;DHT22;25786;51.504;7.344;2022-12-18T03:54:29;-3269.60;78.20
40085;DHT22;25786;51.504;7.344;2022-12-18T03:57:00;-3269.70;78.30
40085;DHT22;25786;51.504;7.344;2022-12-18T03:59:26;-3269.70;78.00
40085;DHT22;25786;51.504;7.344;2022-12-18T04:01:53;-3269.70;77.80
40085;DHT22;25786;51.504;7.344;2022-12-18T04:04:18;-3269.70;77.70
40085;DHT22;25786;51.504;7.344;2022-12-18T04:06:45;-3269.80;78.00
40085;DHT22;25786;51.504;7.344;2022-12-18T04:09:11;-3269.70;77.90
40085;DHT22;25786;51.504;7.344;2022-12-18T04:11:37;-3269.70;78.00
40085;DHT22;25786;51.504;7.344;2022-12-18T04:14:02;-3269.80;78.00
40085;DHT22;25786;51.504;7.344;2022-12-18T04:16:28;-3269.70;77.90
40085;DHT22;25786;51.504;7.344;2022-12-18T04:18:54;-3269.80;78.40
40085;DHT22;25786;51.504;7.344;2022-12-18T04:21:19;-3269.80;78.10
40085;DHT22;25786;51.504;7.344;2022-12-18T04:23:45;-3269.80;77.80
40085;DHT22;25786;51.504;7.344;2022-12-18T04:26:10;-3269.80;77.60
40085;DHT22;25786;51.504;7.344;2022-12-18T04:28:36;-3269.70;78.00
40085;DHT22;25786;51.504;7.344;2022-12-18T04:31:01;-3269.60;77.70
40085;DHT22;25786;51.504;7.344;2022-12-18T04:33:27;-3269.40;77.20
40085;DHT22;25786;51.504;7.344;2022-12-18T04:35:53;-3269.40;77.60
40085;DHT22;25786;51.504;7.344;2022-12-18T04:38:18;-3269.40;77.30
40085;DHT22;25786;51.504;7.344;2022-12-18T04:40:44;-3269.40;77.50
40085;DHT22;25786;51.504;7.344;2022-12-18T04:43:09;-3269.50;77.60
40085;DHT22;25786;51.504;7.344;2022-12-18T04:45:35;-3269.50;77.70
40085;DHT22;25786;51.504;7.344;2022-12-18T04:48:00;-3269.60;77.90
40085;DHT22;25786;51.504;7.344;2022-12-18T04:50:26;-3269.70;77.60
40085;DHT22;25786;51.504;7.344;2022-12-18T04:52:51;-3269.70;77.60
40085;DHT22;25786;51.504;7.344;2022-12-18T04:55:17;-3269.70;77.80
40085;DHT22;25786;51.504;7.344;2022-12-18T04:57:42;-3269.80;77.80
40085;DHT22;25786;51.504;7.344;2022-12-18T05:00:08;-3269.70;77.80
40085;DHT22;25786;51.504;7.344;2022-12-18T05:02:34;-3269.80;78.00
40085;DHT22;25786;51.504;7.344;2022-12-18T05:04:59;-3269.80;78.00
40085;DHT22;25786;51.504;7.344;2022-12-18T05:07:24;-3269.70;78.00
40085;DHT22;25786;51.504;7.344;2022-12-18T05:09:50;-3269.70;77.80
40085;DHT22;25786;51.504;7.344;2022-12-18T05:12:15;-3269.70;77.40
40085;DHT22;25786;51.504;7.344;2022-12-18T05:14:41;-3269.60;77.50
40085;DHT22;25786;51.504;7.344;2022-12-18T05:17:06;-3269.50;77.70
40085;DHT22;25786;51.504;7.344;2022-12-18T05:19:32;-3269.70;77.90
40085;DHT22;25786;51.504;7.344;2022-12-18T05:21:57;-3269.60;77.70
40085;DHT22;25786;51.504;7.344;2022-12-18T05:24:23;-3269.70;77.90
40085;DHT22;25786;51.504;7.344;2022-12-18T05:26:48;-3269.70;77.50
40085;DHT22;25786;51.504;7.344;2022-12-18T05:29:14;-3269.70;77.50
40085;DHT22;25786;51.504;7.344;2022-12-18T05:31:39;-3269.80;77.60
40085;DHT22;25786;51.504;7.344;2022-12-18T05:34:05;-3269.90;77.90
40085;DHT22;25786;51.504;7.344;2022-12-18T05:36:33;-3269.90;77.70
40085;DHT22;25786;51.504;7.344;2022-12-18T05:38:58;-3269.80;78.40
40085;DHT22;25786;51.504;7.344;2022-12-18T05:41:25;-3269.80;79.00
40085;DHT22;25786;51.504;7.344;2022-12-18T05:43:51;-3269.90;78.80
40085;DHT22;25786;51.504;7.344;2022-12-18T05:46:17;-3270.00;78.80
40085;DHT22;25786;51.504;7.344;2022-12-18T05:48:43;-3270.10;79.00
40085;DHT22;25786;51.504;7.344;2022-12-18T05:51:10;-3270.20;78.90
40085;DHT22;25786;51.504;7.344;2022-12-18T05:53:36;-3270.30;78.80
40085;DHT22;25786;51.504;7.344;2022-12-18T05:56:05;-3270.20;78.70
40085;DHT22;25786;51.504;7.344;2022-12-18T05:58:31;-3270.20;79.00
40085;DHT22;25786;51.504;7.344;2022-12-18T06:00:57;-3270.40;78.90
40085;DHT22;25786;51.504;7.344;2022-12-18T06:03:23;-3270.50;79.00
40085;DHT22;25786;51.504;7.344;2022-12-18T06:05:49;-3270.50;78.90
40085;DHT22;25786;51.504;7.344;2022-12-18T06:08:14;-3270.50;78.80
40085;DHT22;25786;51.504;7.344;2022-12-18T06:10:40;-3270.50;79.00
40085;DHT22;25786;51.504;7.344;2022-12-18T06:13:06;-3270.60;79.10
40085;DHT22;25786;51.504;7.344;2022-12-18T06:15:32;-3270.60;78.90
40085;DHT22;25786;51.504;7.344;2022-12-18T06:17:57;-3270.50;78.50
40085;DHT22;25786;51.504;7.344;2022-12-18T06:20:23;-3270.50;78.70
40085;DHT22;25786;51.504;7.344;2022-12-18T06:22:48;-3270.50;78.80
40085;DHT22;25786;51.504;7.344;2022-12-18T06:25:14;-3270.50;78.40
40085;DHT22;25786;51.504;7.344;2022-12-18T06:27:39;-3270.60;78.80
40085;DHT22;25786;51.504;7.344;2022-12-18T06:30:05;-3270.50;78.40
40085;DHT22;25786;51.504;7.344;2022-12-18T06:32:31;-3270.50;78.50
40085;DHT22;25786;51.504;7.344;2022-12-18T06:34:56;-3270.50;78.60
40085;DHT22;25786;51.504;7.344;2022-12-18T06:37:22;-3270.60;78.40
40085;DHT22;25786;51.504;7.344;2022-12-18T06:39:51;-3270.50;78.90
40085;DHT22;25786;51.504;7.344;2022-12-18T06:42:21;-3270.50;78.90
40085;DHT22;25786;51.504;7.344;2022-12-18T06:44:47;-3270.50;78.70
40085;DHT22;25786;51.504;7.344;2022-12-18T06:47:12;-3270.40;78.80
40085;DHT22;25786;51.504;7.344;2022-12-18T06:49:38;-3270.30;78.90
40085;DHT22;25786;51.504;7.344;2022-12-18T06:52:03;-3270.20;78.80
40085;DHT22;25786;51.504;7.344;2022-12-18T06:54:29;-3270.30;78.60
40085;DHT22;25786;51.504;7.344;2022-12-18T06:56:54;-3270.20;78.70
40085;DHT22;25786;51.504;7.344;2022-12-18T06:59:20;-3270.20;78.70
40085;DHT22;25786;51.504;7.344;2022-12-18T07:01:45;-3270.30;78.40
40085;DHT22;25786;51.504;7.344;2022-12-18T07:04:10;-3270.30;78.30
40085;DHT22;25786;51.504;7.344;2022-12-18T07:06:36;-3270.20;78.40
40085;DHT22;25786;51.504;7.344;2022-12-18T07:09:01;-3270.10;78.30
40085;DHT22;25786;51.504;7.344;2022-12-18T07:11:31;-3270.20;78.50
40085;DHT22;25786;51.504;7.344;2022-12-18T07:13:57;-3270.20;78.70
40085;DHT22;25786;51.504;7.344;2022-12-18T07:16:22;-3270.20;78.40
40085;DHT22;25786;51.504;7.344;2022-12-18T07:18:54;-3270.20;78.40
40085;DHT22;25786;51.504;7.344;2022-12-18T07:21:19;-3270.30;78.50
40085;DHT22;25786;51.504;7.344;2022-12-18T07:23:50;-3270.20;78.60
40085;DHT22;25786;51.504;7.344;2022-12-18T07:26:19;-3270.30;79.00
40085;DHT22;25786;51.504;7.344;2022-12-18T07:31:20;-3270.30;78.20
40085;DHT22;25786;51.504;7.344;2022-12-18T07:33:54;-3270.20;78.70
40085;DHT22;25786;51.504;7.344;2022-12-18T07:36:20;-3270.20;79.10
40085;DHT22;25786;51.504;7.344;2022-12-18T07:38:51;-3270.20;79.00
40085;DHT22;25786;51.504;7.344;2022-12-18T07:41:18;-3270.30;79.30
40085;DHT22;25786;51.504;7.344;2022-12-18T07:43:44;-3270.40;79.40
40085;DHT22;25786;51.504;7.344;2022-12-18T07:46:12;-3270.40;79.40
40085;DHT22;25786;51.504;7.344;2022-12-18T07:51:15;-3270.50;79.70
40085;DHT22;25786;51.504;7.344;2022-12-18T07:53:41;-3270.70;79.20
40085;DHT22;25786;51.504;7.344;2022-12-18T07:56:10;-3270.70;79.70
40085;DHT22;25786;51.504;7.344;2022-12-18T07:58:36;-3270.80;79.60
40085;DHT22;25786;51.504;7.344;2022-12-18T08:01:05;-3270.90;80.00
40085;DHT22;25786;51.504;7.344;2022-12-18T08:03:31;-3271.00;79.90
40085;DHT22;25786;51.504;7.344;2022-12-18T08:06:01;-3271.10;80.30
40085;DHT22;25786;51.504;7.344;2022-12-18T08:08:27;-3271.20;80.20
40085;DHT22;25786;51.504;7.344;2022-12-18T08:13:59;-3271.60;80.90
40085;DHT22;25786;51.504;7.344;2022-12-18T08:16:27;-3272.00;80.50
40085;DHT22;25786;51.504;7.344;2022-12-18T08:18:56;-3272.10;79.90
40085;DHT22;25786;51.504;7.344;2022-12-18T08:21:26;-3272.10;79.60
40085;DHT22;25786;51.504;7.344;2022-12-18T08:23:57;-3272.10;79.40
40085;DHT22;25786;51.504;7.344;2022-12-18T08:26:26;-3272.10;79.70
40085;DHT22;25786;51.504;7.344;2022-12-18T08:28:53;-3272.20;79.80
40085;DHT22;25786;51.504;7.344;2022-12-18T08:31:19;-3272.40;80.10
40085;DHT22;25786;51.504;7.344;2022-12-18T08:33:44;-3272.50;80.10
40085;DHT22;25786;51.504;7.344;2022-12-18T08:36:10;-3272.60;80.20
40085;DHT22;25786;51.504;7.344;2022-12-18T08:38:35;-3272.80;80.20
40085;DHT22;25786;51.504;7.344;2022-12-18T08:41:19;-3273.00;80.40
40085;DHT22;25786;51.504;7.344;2022-12-18T08:43:44;-3273.20;80.00
40085;DHT22;25786;51.504;7.344;2022-12-18T08:46:32;-3273.30;79.20
40085;DHT22;25786;51.504;7.344;2022-12-18T08:48:59;-3273.30;79.40
40085;DHT22;25786;51.504;7.344;2022-12-18T08:51:24;-3273.40;79.60
40085;DHT22;25786;51.504;7.344;2022-12-18T08:53:49;-3273.40;79.50
40085;DHT22;25786;51.504;7.344;2022-12-18T08:56:15;-3273.40;79.20
40085;DHT22;25786;51.504;7.344;2022-12-18T08:58:41;-3273.50;79.40
40085;DHT22;25786;51.504;7.344;2022-12-18T09:01:08;-3273.50;79.10
40085;DHT22;25786;51.504;7.344;2022-12-18T09:03:36;-3273.60;79.20
40085;DHT22;25786;51.504;7.344;2022-12-18T09:06:02;-3273.70;79.20
40085;DHT22;25786;51.504;7.344;2022-12-18T09:08:27;-3273.90;78.00
40085;DHT22;25786;51.504;7.344;2022-12-18T09:10:53;-3273.90;78.00
40085;DHT22;25786;51.504;7.344;2022-12-18T09:13:18;-3274.00;78.50
40085;DHT22;25786;51.504;7.344;2022-12-18T09:15:45;-3274.00;78.50
40085;DHT22;25786;51.504;7.344;2022-12-18T09:18:11;-3274.10;78.50
40085;DHT22;25786;51.504;7.344;2022-12-18T09:20:37;-3274.20;78.80
40085;DHT22;25786;51.504;7.344;2022-12-18T09:23:03;-3274.20;78.90
40085;DHT22;25786;51.504;7.344;2022-12-18T09:25:29;-3274.40;78.90
40085;DHT22;25786;51.504;7.344;2022-12-18T09:28:06;-3274.30;78.60
40085;DHT22;25786;51.504;7.344;2022-12-18T09:30:32;-3274.20;78.70
40085;DHT22;25786;51.504;7.344;2022-12-18T09:32:59;-3274.40;78.80
40085;DHT22;25786;51.504;7.344;2022-12-18T09:35:25;-3274.40;78.30
40085;DHT22;25786;51.504;7.344;2022-12-18T09:37:50;-3274.40;78.20
40085;DHT22;25786;51.504;7.344;2022-12-18T09:40:16;-3274.40;78.10
40085;DHT22;25786;51.504;7.344;2022-12-18T09:42:44;-3274.50;78.60
40085;DHT22;25786;51.504;7.344;2022-12-18T09:45:12;-3274.50;78.00
40085;DHT22;25786;51.504;7.344;2022-12-18T09:47:39;-3274.60;78.00
40085;DHT22;25786;51.504;7.344;2022-12-18T09:50:12;-3274.70;77.20
40085;DHT22;25786;51.504;7.344;2022-12-18T09:52:43;-3274.80;77.00
40085;DHT22;25786;51.504;7.344;2022-12-18T09:57:51;-3275.00;77.50
40085;DHT22;25786;51.504;7.344;2022-12-18T10:00:19;-3275.00;77.80
40085;DHT22;25786;51.504;7.344;2022-12-18T10:02:46;-3275.10;77.70
40085;DHT22;25786;51.504;7.344;2022-12-18T10:05:13;-3275.00;78.00
40085;DHT22;25786;51.504;7.344;2022-12-18T10:07:57;-3275.20;78.00
40085;DHT22;25786;51.504;7.344;2022-12-18T10:10:43;-3275.10;78.20
40085;DHT22;25786;51.504;7.344;2022-12-18T10:13:30;-3275.10;78.30
40085;DHT22;25786;51.504;7.344;2022-12-18T10:18:26;-3275.30;77.40
40085;DHT22;25786;51.504;7.344;2022-12-18T10:20:56;-3275.50;77.10
40085;DHT22;25786;51.504;7.344;2022-12-18T10:23:28;-3275.60;77.10
40085;DHT22;25786;51.504;7.344;2022-12-18T10:26:00;-3275.70;77.20
40085;DHT22;25786;51.504;7.344;2022-12-18T10:28:26;-3276.00;77.20
40085;DHT22;25786;51.504;7.344;2022-12-18T10:30:52;-3276.10;76.30
40085;DHT22;25786;51.504;7.344;2022-12-18T10:33:22;-3276.10;76.70
40085;DHT22;25786;51.504;7.344;2022-12-18T10:35:49;-3276.10;75.90
40085;DHT22;25786;51.504;7.344;2022-12-18T10:43:14;-3276.20;77.50
40085;DHT22;25786;51.504;7.344;2022-12-18T10:45:40;-3276.20;78.10
40085;DHT22;25786;51.504;7.344;2022-12-18T10:48:17;-3276.20;78.20
40085;DHT22;25786;51.504;7.344;2022-12-18T10:50:43;-3276.30;78.20
40085;DHT22;25786;51.504;7.344;2022-12-18T10:53:13;-3276.30;78.20
40085;DHT22;25786;51.504;7.344;2022-12-18T10:55:43;-3276.30;78.30
40085;DHT22;25786;51.504;7.344;2022-12-18T10:58:16;-3276.40;77.20
40085;DHT22;25786;51.504;7.344;2022-12-18T11:00:42;-3276.50;77.40
40085;DHT22;25786;51.504;7.344;2022-12-18T11:06:01;-3276.60;77.30
40085;DHT22;25786;51.504;7.344;2022-12-18T11:08:26;-3276.60;76.00
40085;DHT22;25786;51.504;7.344;2022-12-18T11:10:52;-3276.60;74.80
40085;DHT22;25786;51.504;7.344;2022-12-18T11:13:18;0.00;72.90
40085;DHT22;25786;51.504;7.344;2022-12-18T11:15:45;0.00;72.30
40085;DHT22;25786;51.504;7.344;2022-12-18T11:20:42;0.20;73.80
40085;DHT22;25786;51.504;7.344;2022-12-18T11:23:11;0.30;74.10
40085;DHT22;25786;51.504;7.344;2022-12-18T11:25:38;0.50;74.40
40085;DHT22;25786;51.504;7.344;2022-12-18T11:28:05;0.60;74.50
40085;DHT22;25786;51.504;7.344;2022-12-18T11:30:32;0.60;73.90
40085;DHT22;25786;51.504;7.344;2022-12-18T11:38:32;0.30;74.50
40085;DHT22;25786;51.504;7.344;2022-12-18T11:40:57;0.40;75.10
40085;DHT22;25786;51.504;7.344;2022-12-18T11:43:28;0.40;75.70
40085;DHT22;25786;51.504;7.344;2022-12-18T11:45:58;0.40;76.40
40085;DHT22;25786;51.504;7.344;2022-12-18T11:50:56;0.30;74.50
40085;DHT22;25786;51.504;7.344;2022-12-18T11:53:23;0.50;74.20
40085;DHT22;25786;51.504;7.344;2022-12-18T11:58:46;0.50;73.10
40085;DHT22;25786;51.504;7.344;2022-12-18T12:01:15;0.40;73.50
40085;DHT22;25786;51.504;7.344;2022-12-18T12:06:24;0.60;74.50
40085;DHT22;25786;51.504;7.344;2022-12-18T12:09:07;0.50;75.00
40085;DHT22;25786;51.504;7.344;2022-12-18T12:14:32;0.60;75.50
40085;DHT22;25786;51.504;7.344;2022-12-18T12:17:09;0.60;75.10
40085;DHT22;25786;51.504;7.344;2022-12-18T12:19:42;0.80;75.70
40085;DHT22;25786;51.504;7.344;2022-12-18T12:27:29;1.10;74.30
40085;DHT22;25786;51.504;7.344;2022-12-18T12:32:35;1.10;74.60
40085;DHT22;25786;51.504;7.344;2022-12-18T12:37:51;1.20;74.60
40085;DHT22;25786;51.504;7.344;2022-12-18T12:40:19;1.10;74.20
40085;DHT22;25786;51.504;7.344;2022-12-18T12:42:47;1.20;73.70
40085;DHT22;25786;51.504;7.344;2022-12-18T12:45:43;1.20;73.80
40085;DHT22;25786;51.504;7.344;2022-12-18T12:48:18;1.00;73.50
40085;DHT22;25786;51.504;7.344;2022-12-18T12:50:44;0.90;74.10
40085;DHT22;25786;51.504;7.344;2022-12-18T12:53:13;0.70;74.40
40085;DHT22;25786;51.504;7.344;2022-12-18T12:55:40;0.90;75.00
40085;DHT22;25786;51.504;7.344;2022-12-18T12:58:25;1.00;74.30
40085;DHT22;25786;51.504;7.344;2022-12-18T13:01:00;1.10;74.00
40085;DHT22;25786;51.504;7.344;2022-12-18T13:03:35;0.90;73.80
40085;DHT22;25786;51.504;7.344;2022-12-18T13:06:53;0.80;74.20
40085;DHT22;25786;51.504;7.344;2022-12-18T13:08:58;1.00;74.40
40085;DHT22;25786;51.504;7.344;2022-12-18T13:11:31;1.10;74.90
40085;DHT22;25786;51.504;7.344;2022-12-18T13:14:49;1.20;74.10
40085;DHT22;25786;51.504;7.344;2022-12-18T13:17:14;1.10;74.40
40085;DHT22;25786;51.504;7.344;2022-12-18T13:19:40;1.10;74.00
40085;DHT22;25786;51.504;7.344;2022-12-18T13:22:12;1.00;74.10
40085;DHT22;25786;51.504;7.344;2022-12-18T13:24:46;1.00;74.00
40085;DHT22;25786;51.504;7.344;2022-12-18T13:29:55;0.80;74.50
40085;DHT22;25786;51.504;7.344;2022-12-18T13:32:22;0.80;74.40
40085;DHT22;25786;51.504;7.344;2022-12-18T13:37:53;1.00;75.10
40085;DHT22;25786;51.504;7.344;2022-12-18T13:40:53;0.90;75.60
40085;DHT22;25786;51.504;7.344;2022-12-18T13:48:21;1.00;76.50
40085;DHT22;25786;51.504;7.344;2022-12-18T13:50:57;1.00;76.30
40085;DHT22;25786;51.504;7.344;2022-12-18T13:53:58;0.80;76.60
40085;DHT22;25786;51.504;7.344;2022-12-18T13:56:22;0.70;77.50
40085;DHT22;25786;51.504;7.344;2022-12-18T13:59:16;0.80;77.70
40085;DHT22;25786;51.504;7.344;2022-12-18T14:01:52;0.80;77.60
40085;DHT22;25786;51.504;7.344;2022-12-18T14:04:19;0.80;77.80
40085;DHT22;25786;51.504;7.344;2022-12-18T14:06:45;0.80;77.50
40085;DHT22;25786;51.504;7.344;2022-12-18T14:09:15;0.60;77.70
40085;DHT22;25786;51.504;7.344;2022-12-18T14:11:43;0.80;78.20
40085;DHT22;25786;51.504;7.344;2022-12-18T14:14:13;0.80;77.90
40085;DHT22;25786;51.504;7.344;2022-12-18T14:16:41;0.70;77.90
40085;DHT22;25786;51.504;7.344;2022-12-18T14:19:08;0.70;78.40
40085;DHT22;25786;51.504;7.344;2022-12-18T14:21:37;0.80;78.70
40085;DHT22;25786;51.504;7.344;2022-12-18T14:24:12;0.70;78.60
40085;DHT22;25786;51.504;7.344;2022-12-18T14:27:21;0.70;78.80
40085;DHT22;25786;51.504;7.344;2022-12-18T14:29:47;0.70;78.90
40085;DHT22;25786;51.504;7.344;2022-12-18T14:32:13;0.60;77.80
40085;DHT22;25786;51.504;7.344;2022-12-18T14:34:42;0.60;77.80
40085;DHT22;25786;51.504;7.344;2022-12-18T14:37:09;0.60;78.60
40085;DHT22;25786;51.504;7.344;2022-12-18T14:39:35;0.50;79.20
40085;DHT22;25786;51.504;7.344;2022-12-18T14:42:00;0.60;79.30
40085;DHT22;25786;51.504;7.344;2022-12-18T14:44:26;0.70;79.20
40085;DHT22;25786;51.504;7.344;2022-12-18T14:46:51;0.60;79.10
40085;DHT22;25786;51.504;7.344;2022-12-18T14:51:56;0.70;79.00
40085;DHT22;25786;51.504;7.344;2022-12-18T14:54:25;0.60;78.10
40085;DHT22;25786;51.504;7.344;2022-12-18T14:59:26;0.80;74.80
40085;DHT22;25786;51.504;7.344;2022-12-18T15:04:42;1.00;69.90
40085;DHT22;25786;51.504;7.344;2022-12-18T15:07:13;1.10;68.60
40085;DHT22;25786;51.504;7.344;2022-12-18T15:09:40;1.20;68.00
40085;DHT22;25786;51.504;7.344;2022-12-18T15:15:04;1.20;66.70
40085;DHT22;25786;51.504;7.344;2022-12-18T15:17:30;1.20;67.10
40085;DHT22;25786;51.504;7.344;2022-12-18T15:20:03;1.30;66.20
40085;DHT22;25786;51.504;7.344;2022-12-18T15:22:34;1.40;66.50
40085;DHT22;25786;51.504;7.344;2022-12-18T15:25:00;1.40;67.90
40085;DHT22;25786;51.504;7.344;2022-12-18T15:27:33;1.40;68.80
40085;DHT22;25786;51.504;7.344;2022-12-18T15:32:35;1.60;68.90
40085;DHT22;25786;51.504;7.344;2022-12-18T15:35:02;1.60;68.90
40085;DHT22;25786;51.504;7.344;2022-12-18T15:37:28;1.50;68.60
40085;DHT22;25786;51.504;7.344;2022-12-18T15:39:53;1.30;70.00
40085;DHT22;25786;51.504;7.344;2022-12-18T15:42:19;1.30;69.80
40085;DHT22;25786;51.504;7.344;2022-12-18T15:45:03;1.10;71.00
40085;DHT22;25786;51.504;7.344;2022-12-18T15:47:28;1.00;71.90
40085;DHT22;25786;51.504;7.344;2022-12-18T15:49:54;1.00;71.70
40085;DHT22;25786;51.504;7.344;2022-12-18T15:52:19;0.90;71.90
40085;DHT22;25786;51.504;7.344;2022-12-18T15:54:51;0.90;71.50
40085;DHT22;25786;51.504;7.344;2022-12-18T15:57:35;1.00;71.10
40085;DHT22;25786;51.504;7.344;2022-12-18T16:00:01;1.00;70.80
40085;DHT22;25786;51.504;7.344;2022-12-18T16:02:26;1.10;68.00
40085;DHT22;25786;51.504;7.344;2022-12-18T16:04:53;1.30;65.20
40085;DHT22;25786;51.504;7.344;2022-12-18T16:07:21;1.40;63.40
40085;DHT22;25786;51.504;7.344;2022-12-18T16:09:50;1.40;62.60
40085;DHT22;25786;51.504;7.344;2022-12-18T16:12:23;1.50;62.90
40085;DHT22;25786;51.504;7.344;2022-12-18T16:14:49;1.50;62.00
40085;DHT22;25786;51.504;7.344;2022-12-18T16:17:15;1.60;62.40
40085;DHT22;25786;51.504;7.344;2022-12-18T16:19:40;1.50;62.10
40085;DHT22;25786;51.504;7.344;2022-12-18T16:22:08;1.50;62.30
40085;DHT22;25786;51.504;7.344;2022-12-18T16:24:39;1.60;62.10
40085;DHT22;25786;51.504;7.344;2022-12-18T16:27:05;1.60;62.30
40085;DHT22;25786;51.504;7.344;2022-12-18T16:29:30;1.60;62.40
40085;DHT22;25786;51.504;7.344;2022-12-18T16:31:59;1.60;62.60
40085;DHT22;25786;51.504;7.344;2022-12-18T16:34:26;1.70;62.90
40085;DHT22;25786;51.504;7.344;2022-12-18T16:36:59;1.60;63.10
40085;DHT22;25786;51.504;7.344;2022-12-18T16:39:39;1.80;62.90
40085;DHT22;25786;51.504;7.344;2022-12-18T16:42:17;1.70;63.40
40085;DHT22;25786;51.504;7.344;2022-12-18T16:44:47;1.80;63.40
40085;DHT22;25786;51.504;7.344;2022-12-18T16:47:13;1.90;63.70